createdAt,value
2023-03-21T00:01:05.676Z,20.27
2023-03-21T00:03:33.844Z,20.13
2023-03-21T00:06:12.741Z,19.95
2023-03-21T00:08:40.688Z,19.75
2023-03-21T00:11:16.793Z,18.92
2023-03-21T00:13:50.710Z,20.20
2023-03-21T00:16:28.135Z,18.33
2023-03-21T00:19:10.757Z,20.48
2023-03-21T00:21:51.830Z,18.48
2023-03-21T00:24:29.711Z,19.75
2023-03-21T00:27:29.876Z,19.08
2023-03-21T00:29:50.299Z,18.00
2023-03-21T00:32:24.843Z,19.30
2023-03-21T00:35:21.538Z,19.55
2023-03-21T00:37:47.600Z,18.83
2023-03-21T00:40:28.004Z,18.38
2023-03-21T00:42:56.186Z,19.60
2023-03-21T00:45:29.743Z,17.92
2023-03-21T00:48:00.115Z,19.40
2023-03-21T00:50:33.821Z,20.05
2023-03-21T00:53:01.065Z,18.48
2023-03-21T00:55:27.958Z,19.15
2023-03-21T00:58:02.656Z,18.63
2023-03-21T01:00:30.436Z,20.60
2023-03-21T01:03:23.580Z,20.52
2023-03-21T01:06:07.144Z,20.00
2023-03-21T01:08:52.999Z,19.20
2023-03-21T01:11:24.736Z,21.25
2023-03-21T01:14:14.615Z,20.85
2023-03-21T01:16:45.923Z,21.63
2023-03-21T01:19:30.885Z,20.85
2023-03-21T01:22:09.856Z,23.95
2023-03-21T01:24:40.467Z,25.55
2023-03-21T01:27:19.826Z,21.83
2023-03-21T01:29:46.649Z,23.73
2023-03-21T01:32:19.850Z,23.75
2023-03-21T01:34:46.592Z,23.63
2023-03-21T01:37:14.427Z,23.13
2023-03-21T01:39:47.895Z,23.23
2023-03-21T01:42:21.860Z,26.27
2023-03-21T01:45:02.810Z,25.00
2023-03-21T01:47:35.843Z,22.17
2023-03-21T01:50:10.857Z,23.80
2023-03-21T01:52:47.857Z,25.63
2023-03-21T01:55:22.880Z,24.55
2023-03-21T01:58:05.781Z,21.40
2023-03-21T02:00:34.004Z,20.33
2023-03-21T02:03:18.837Z,21.23
2023-03-21T02:06:00.814Z,25.92
2023-03-21T02:08:39.954Z,23.88
2023-03-21T02:11:09.933Z,24.42
2023-03-21T02:13:43.935Z,22.50
2023-03-21T02:16:25.221Z,21.80
2023-03-21T02:19:04.958Z,23.63
2023-03-21T02:21:50.157Z,23.27
2023-03-21T02:24:48.778Z,23.25
2023-03-21T02:27:30.920Z,22.00
2023-03-21T02:30:50.774Z,23.08
2023-03-21T02:33:47.995Z,22.13
2023-03-21T02:36:32.937Z,20.35
2023-03-21T02:39:15.112Z,19.60
2023-03-21T02:42:11.926Z,19.98
2023-03-21T02:44:46.463Z,20.52
2023-03-21T02:47:39.997Z,20.05
2023-03-21T02:50:25.979Z,18.67
2023-03-21T02:53:17.948Z,19.95
2023-03-21T02:55:53.417Z,19.10
2023-03-21T02:58:29.982Z,18.88
2023-03-21T03:00:57.266Z,18.42
2023-03-21T03:03:34.779Z,17.30
2023-03-21T03:06:09.972Z,18.70
2023-03-21T03:09:03.088Z,18.67
2023-03-21T03:11:45.974Z,20.33
2023-03-21T03:17:20.983Z,18.33
2023-03-21T03:23:00.999Z,18.92
2023-03-21T03:25:46.036Z,20.08
2023-03-21T03:28:16.860Z,19.42
2023-03-21T03:31:07.084Z,18.90
2023-03-21T03:33:46.005Z,17.52
2023-03-21T03:36:31.671Z,17.35
2023-03-21T03:39:01.997Z,17.83
2023-03-21T03:42:00.863Z,16.23
2023-03-21T03:44:23.069Z,15.00
2023-03-21T03:47:17.490Z,16.17
2023-03-21T03:49:50.918Z,15.88
2023-03-21T03:52:33.060Z,13.73
2023-03-21T03:55:07.060Z,13.43
2023-03-21T03:57:34.413Z,14.57
2023-03-21T04:00:08.046Z,12.88
2023-03-21T04:02:34.959Z,12.43
2023-03-21T04:05:08.084Z,12.02
2023-03-21T04:07:42.054Z,11.75
2023-03-21T04:10:16.054Z,12.10
2023-03-21T04:12:49.090Z,12.90
2023-03-21T04:15:23.141Z,12.95
2023-03-21T04:17:50.721Z,13.55
2023-03-21T04:20:36.194Z,13.90
2023-03-21T04:23:04.770Z,16.08
2023-03-21T04:25:54.027Z,16.98
2023-03-21T04:28:30.169Z,15.70
2023-03-21T04:31:03.462Z,14.23
2023-03-21T04:33:38.114Z,16.67
2023-03-21T04:36:16.181Z,13.68
2023-03-21T04:38:48.561Z,15.45
2023-03-21T04:41:22.107Z,13.85
2023-03-21T04:43:55.148Z,14.18
2023-03-21T04:46:22.218Z,18.30
2023-03-21T04:48:56.148Z,16.70
2023-03-21T04:51:23.174Z,16.67
2023-03-21T04:53:59.144Z,19.05
2023-03-21T04:56:38.215Z,18.63
2023-03-21T04:59:20.141Z,16.33
2023-03-21T05:01:54.199Z,18.17
2023-03-21T05:04:21.150Z,15.38
2023-03-21T05:06:55.182Z,14.40
2023-03-21T05:09:30.200Z,15.48
2023-03-21T05:11:57.107Z,14.13
2023-03-21T05:14:32.175Z,14.55
2023-03-21T05:17:08.192Z,15.10
2023-03-21T05:19:35.463Z,15.50
2023-03-21T05:22:14.226Z,13.93
2023-03-21T05:24:41.766Z,13.95
2023-03-21T05:27:15.255Z,14.07
2023-03-21T05:29:42.060Z,12.63
2023-03-21T05:32:15.173Z,11.25
2023-03-21T05:34:48.200Z,11.82
2023-03-21T05:37:15.472Z,10.05
2023-03-21T05:39:49.196Z,11.02
2023-03-21T05:42:16.182Z,10.55
2023-03-21T05:44:43.072Z,11.45
2023-03-21T05:47:16.241Z,12.02
2023-03-21T05:49:43.276Z,12.32
2023-03-21T05:52:17.203Z,11.70
2023-03-21T05:54:44.166Z,12.60
2023-03-21T05:57:11.283Z,11.52
2023-03-21T05:59:45.250Z,9.65
2023-03-21T06:02:13.244Z,10.20
2023-03-21T06:04:46.299Z,10.27
2023-03-21T06:07:19.259Z,12.02
2023-03-21T06:09:46.256Z,10.63
2023-03-21T06:12:21.277Z,9.35
2023-03-21T06:14:54.284Z,9.40
2023-03-21T06:17:27.292Z,9.98
2023-03-21T06:20:01.094Z,8.90
2023-03-21T06:22:35.267Z,9.25
2023-03-21T06:25:09.283Z,8.40
2023-03-21T06:27:36.766Z,9.15
2023-03-21T06:30:10.282Z,8.48
2023-03-21T06:32:37.112Z,10.88
2023-03-21T06:35:12.027Z,9.25
2023-03-21T06:37:38.960Z,10.48
2023-03-21T06:40:16.359Z,10.82
2023-03-21T06:42:49.307Z,11.32
2023-03-21T06:45:16.056Z,12.98
2023-03-21T06:47:49.312Z,10.73
2023-03-21T06:50:16.222Z,10.65
2023-03-21T06:52:49.318Z,9.77
2023-03-21T06:55:16.311Z,8.63
2023-03-21T06:57:49.339Z,10.18
2023-03-21T07:00:16.731Z,13.35
2023-03-21T07:02:51.318Z,13.90
2023-03-21T07:05:18.351Z,12.25
2023-03-21T07:07:51.342Z,11.85
2023-03-21T07:10:24.382Z,11.85
2023-03-21T07:12:51.162Z,10.75
2023-03-21T07:15:24.353Z,11.23
2023-03-21T07:17:51.199Z,10.90
2023-03-21T07:20:24.357Z,14.85
2023-03-21T07:22:53.808Z,13.30
2023-03-21T07:25:27.407Z,13.43
2023-03-21T07:27:54.271Z,11.90
2023-03-21T07:30:28.428Z,12.27
2023-03-21T07:32:55.270Z,11.85
2023-03-21T07:35:28.416Z,10.88
2023-03-21T07:37:55.311Z,10.85
2023-03-21T07:40:22.152Z,9.68
2023-03-21T07:42:57.426Z,9.30
2023-03-21T07:45:26.917Z,9.27
2023-03-21T07:48:03.522Z,8.43
2023-03-21T07:50:30.516Z,9.63
2023-03-21T07:53:04.410Z,9.27
2023-03-21T07:55:34.806Z,9.77
2023-03-21T07:58:09.462Z,8.50
2023-03-21T08:00:36.292Z,9.38
2023-03-21T08:03:09.467Z,9.57
2023-03-21T08:05:38.402Z,9.05
2023-03-21T08:08:12.497Z,8.30
2023-03-21T08:10:39.295Z,9.75
2023-03-21T08:13:16.755Z,9.13
2023-03-21T08:15:43.713Z,8.13
2023-03-21T08:18:11.479Z,7.10
2023-03-21T08:20:45.635Z,8.05
2023-03-21T08:23:13.860Z,10.48
2023-03-21T08:25:40.949Z,10.30
2023-03-21T08:28:14.764Z,10.40
2023-03-21T08:30:41.531Z,9.43
2023-03-21T08:33:13.216Z,8.85
2023-03-21T08:35:47.561Z,9.68
2023-03-21T08:38:14.549Z,10.07
2023-03-21T08:40:41.554Z,8.82
2023-03-21T08:43:17.500Z,8.65
2023-03-21T08:45:49.540Z,8.07
2023-03-21T08:48:27.805Z,8.25
2023-03-21T08:50:54.720Z,9.00
2023-03-21T08:53:21.857Z,7.90
2023-03-21T08:55:56.540Z,7.88
2023-03-21T08:58:23.415Z,8.98
2023-03-21T09:00:57.532Z,8.25
2023-03-21T09:03:31.550Z,6.93
2023-03-21T09:05:59.095Z,7.20
2023-03-21T09:08:32.875Z,6.95
2023-03-21T09:10:59.690Z,7.00
2023-03-21T09:13:26.746Z,6.43
2023-03-21T09:16:01.645Z,7.32
2023-03-21T09:18:48.939Z,7.85
2023-03-21T09:21:24.618Z,8.50
2023-03-21T09:24:01.627Z,7.15
2023-03-21T09:26:28.864Z,8.20
2023-03-21T09:28:56.288Z,7.05
2023-03-21T09:31:29.605Z,7.57
2023-03-21T09:33:58.306Z,7.22
2023-03-21T09:36:33.619Z,6.57
2023-03-21T09:39:00.590Z,5.82
2023-03-21T09:41:30.625Z,6.55
2023-03-21T09:44:34.643Z,7.63
2023-03-21T09:47:17.587Z,7.35
2023-03-21T09:50:01.686Z,8.73
2023-03-21T09:53:00.988Z,7.97
2023-03-21T09:55:41.914Z,7.35
2023-03-21T09:58:41.327Z,8.10
2023-03-21T10:01:33.665Z,7.55
2023-03-21T10:04:05.469Z,6.88
2023-03-21T10:06:40.828Z,7.68
2023-03-21T10:09:15.323Z,7.47
2023-03-21T10:11:55.699Z,8.63
2023-03-21T10:14:31.798Z,8.40
2023-03-21T10:17:13.652Z,7.53
2023-03-21T10:19:41.952Z,8.10
2023-03-21T10:22:15.636Z,8.63
2023-03-21T10:24:42.559Z,8.45
2023-03-21T10:27:19.666Z,7.47
2023-03-21T10:29:52.678Z,7.72
2023-03-21T10:32:26.656Z,7.28
2023-03-21T10:37:35.660Z,7.80
2023-03-21T10:40:03.489Z,7.82
2023-03-21T10:42:40.671Z,8.10
2023-03-21T10:45:18.885Z,7.10
2023-03-21T10:47:55.954Z,6.47
2023-03-21T10:50:26.830Z,8.05
2023-03-21T10:53:06.805Z,7.97
2023-03-21T10:55:41.884Z,8.23
2023-03-21T10:58:25.761Z,7.95
2023-03-21T11:01:01.622Z,7.85
2023-03-21T11:03:49.756Z,7.75
2023-03-21T11:06:32.962Z,7.80
2023-03-21T11:09:14.975Z,6.40
2023-03-21T11:12:00.744Z,6.53
2023-03-21T11:14:44.254Z,7.00
2023-03-21T11:17:23.716Z,7.38
2023-03-21T11:20:01.088Z,6.55
2023-03-21T11:22:45.743Z,5.95
2023-03-21T11:25:45.747Z,5.88
2023-03-21T11:28:30.789Z,6.78
2023-03-21T11:31:00.367Z,7.10
2023-03-21T11:33:39.774Z,6.18
2023-03-21T11:36:18.499Z,6.82
2023-03-21T11:39:16.814Z,6.50
2023-03-21T11:41:48.008Z,7.38
2023-03-21T11:44:42.926Z,7.80
2023-03-21T11:47:19.816Z,8.00
2023-03-21T11:49:58.347Z,7.53
2023-03-21T11:52:43.601Z,7.68
2023-03-21T11:55:37.034Z,8.43
2023-03-21T11:58:14.632Z,7.90
2023-03-21T12:01:11.881Z,8.52
2023-03-21T12:04:05.378Z,8.63
2023-03-21T12:07:01.938Z,8.60
2023-03-21T12:09:28.717Z,8.73
2023-03-21T12:12:24.268Z,8.40
2023-03-21T12:15:16.858Z,8.95
2023-03-21T12:18:06.153Z,8.55
2023-03-21T12:20:52.838Z,7.95
2023-03-21T12:23:48.278Z,8.27
2023-03-21T12:26:43.851Z,8.20
2023-03-21T12:29:36.377Z,8.30
2023-03-21T12:35:06.779Z,7.55
2023-03-21T12:37:59.851Z,7.70
2023-03-21T12:40:51.075Z,7.97
2023-03-21T12:43:55.179Z,8.40
2023-03-21T12:46:51.991Z,7.13
2023-03-21T12:49:24.877Z,7.50
2023-03-21T12:52:03.911Z,7.38
2023-03-21T12:54:40.906Z,7.47
2023-03-21T12:57:57.564Z,7.97
2023-03-21T13:00:33.779Z,7.13
2023-03-21T13:03:11.929Z,6.95
2023-03-21T13:05:50.611Z,6.65
2023-03-21T13:08:35.942Z,6.97
2023-03-21T13:11:10.928Z,6.90
2023-03-21T13:13:46.922Z,7.05
2023-03-21T13:16:29.029Z,7.10
2023-03-21T13:19:20.965Z,7.63
2023-03-21T13:22:20.935Z,8.05
2023-03-21T13:24:56.935Z,7.10
2023-03-21T13:27:32.811Z,7.72
2023-03-21T13:30:16.040Z,7.85
2023-03-21T13:32:44.896Z,7.90
2023-03-21T13:35:41.452Z,7.70
2023-03-21T13:38:25.930Z,7.05
2023-03-21T13:41:03.360Z,7.78
2023-03-21T13:43:50.993Z,8.45
2023-03-21T13:46:40.599Z,8.40
2023-03-21T13:49:42.017Z,6.40
2023-03-21T13:52:08.811Z,6.25
2023-03-21T13:55:04.011Z,7.72
2023-03-21T13:57:37.003Z,6.95
2023-03-21T14:00:31.226Z,7.40
2023-03-21T14:03:14.140Z,7.93
2023-03-21T14:05:48.181Z,7.78
2023-03-21T14:08:27.808Z,8.35
2023-03-21T14:11:10.041Z,8.02
2023-03-21T14:13:51.364Z,8.70
2023-03-21T14:16:20.410Z,8.68
2023-03-21T14:19:03.024Z,8.75
2023-03-21T14:21:33.007Z,8.52
2023-03-21T14:24:19.135Z,8.63
2023-03-21T14:26:58.029Z,9.13
2023-03-21T14:29:40.111Z,10.20
2023-03-21T14:32:07.621Z,9.63
2023-03-21T14:34:43.510Z,8.65
2023-03-21T14:37:47.040Z,8.90
2023-03-21T14:40:22.657Z,9.65
2023-03-21T14:42:58.052Z,9.10
2023-03-21T14:45:28.028Z,9.23
2023-03-21T14:48:10.130Z,9.87
2023-03-21T14:51:05.952Z,9.77
2023-03-21T14:53:44.091Z,10.07
2023-03-21T14:56:23.148Z,9.82
2023-03-21T14:58:57.085Z,9.88
2023-03-21T15:01:34.708Z,9.80
2023-03-21T15:04:13.075Z,9.48
2023-03-21T15:06:59.028Z,8.60
2023-03-21T15:09:36.112Z,8.70
2023-03-21T15:12:16.103Z,6.97
2023-03-21T15:14:43.151Z,8.32
2023-03-21T15:17:10.951Z,7.90
2023-03-21T15:19:47.157Z,6.88
2023-03-21T15:22:47.142Z,6.78
2023-03-21T15:25:18.226Z,6.20
2023-03-21T15:27:52.162Z,7.25
2023-03-21T15:30:31.171Z,7.60
2023-03-21T15:33:05.006Z,6.93
2023-03-21T15:35:56.205Z,7.82
2023-03-21T15:38:42.531Z,7.38
2023-03-21T15:41:26.216Z,8.15
2023-03-21T15:44:09.132Z,7.72
2023-03-21T15:46:54.202Z,8.05
2023-03-21T15:49:31.469Z,7.68
2023-03-21T15:52:14.132Z,7.63
2023-03-21T15:54:48.009Z,7.70
2023-03-21T15:57:31.144Z,7.55
2023-03-21T16:00:15.178Z,7.13
2023-03-21T16:02:50.298Z,6.72
2023-03-21T16:05:34.091Z,6.07
2023-03-21T16:08:29.220Z,6.35
2023-03-21T16:11:33.274Z,6.00
2023-03-21T16:14:00.305Z,6.30
2023-03-21T16:16:29.643Z,6.18
2023-03-21T16:19:04.268Z,5.90
2023-03-21T16:21:34.106Z,6.35
2023-03-21T16:24:10.371Z,5.50
2023-03-21T16:26:50.230Z,4.95
2023-03-21T16:29:18.648Z,4.70
2023-03-21T16:31:48.401Z,4.63
2023-03-21T16:34:22.224Z,4.38
2023-03-21T16:36:49.169Z,4.30
2023-03-21T16:39:28.215Z,4.18
2023-03-21T16:42:01.256Z,4.32
2023-03-21T16:44:34.268Z,4.28
2023-03-21T16:47:10.271Z,4.70
2023-03-21T16:49:44.287Z,4.13
2023-03-21T16:52:12.910Z,4.25
2023-03-21T16:54:47.411Z,4.50
2023-03-21T16:57:27.833Z,5.85
2023-03-21T17:00:02.282Z,5.25
2023-03-21T17:02:29.153Z,5.80
2023-03-21T17:05:04.543Z,5.80
2023-03-21T17:07:38.278Z,6.18
2023-03-21T17:10:13.600Z,6.38
2023-03-21T17:12:47.296Z,5.65
2023-03-21T17:15:21.283Z,6.15
2023-03-21T17:17:50.048Z,6.13
2023-03-21T17:20:31.293Z,7.00
2023-03-21T17:22:58.162Z,8.30
2023-03-21T17:25:32.275Z,8.30
2023-03-21T17:27:59.253Z,7.30
2023-03-21T17:30:48.345Z,7.60
2023-03-21T17:33:15.450Z,8.10
2023-03-21T17:35:42.319Z,9.20
2023-03-21T17:38:22.336Z,8.35
2023-03-21T17:40:55.359Z,6.75
2023-03-21T17:43:29.345Z,6.95
2023-03-21T17:45:57.295Z,7.35
2023-03-21T17:48:31.337Z,7.03
2023-03-21T17:51:04.346Z,7.35
2023-03-21T17:53:31.195Z,7.18
2023-03-21T17:56:04.385Z,7.65
2023-03-21T17:58:38.394Z,6.47
2023-03-21T18:01:05.238Z,6.80
2023-03-21T18:03:38.533Z,7.07
2023-03-21T18:06:06.552Z,7.22
2023-03-21T18:08:40.393Z,7.00
2023-03-21T18:11:07.500Z,6.32
2023-03-21T18:13:40.374Z,6.40
2023-03-21T18:16:07.562Z,7.28
2023-03-21T18:18:35.092Z,7.38
2023-03-21T18:21:08.413Z,6.63
2023-03-21T18:23:41.446Z,6.40
2023-03-21T18:26:09.812Z,7.72
2023-03-21T18:28:45.495Z,7.30
2023-03-21T18:31:19.899Z,7.20
2023-03-21T18:33:55.387Z,6.85
2023-03-21T18:36:25.387Z,6.78
2023-03-21T18:39:03.481Z,7.00
2023-03-21T18:41:31.064Z,7.03
2023-03-21T18:44:15.981Z,7.00
2023-03-21T18:46:57.494Z,6.95
2023-03-21T18:52:18.508Z,6.35
2023-03-21T18:54:51.470Z,6.45
2023-03-21T18:57:37.515Z,5.93
2023-03-21T19:00:19.507Z,5.72
2023-03-21T19:03:09.970Z,5.40
2023-03-21T19:05:48.463Z,5.00
2023-03-21T19:08:21.518Z,4.25
2023-03-21T19:10:48.938Z,4.47
2023-03-21T19:13:22.469Z,4.65
2023-03-21T19:15:49.874Z,4.18
2023-03-21T19:18:54.139Z,4.88
2023-03-21T19:21:11.266Z,3.95
2023-03-21T19:24:20.868Z,5.60
2023-03-21T19:26:37.461Z,5.00
2023-03-21T19:29:10.547Z,5.50
2023-03-21T19:31:37.507Z,6.53
2023-03-21T19:34:10.580Z,6.60
2023-03-21T19:36:37.490Z,7.85
2023-03-21T19:39:10.540Z,7.97
2023-03-21T19:41:38.398Z,8.75
2023-03-21T19:44:13.542Z,8.23
2023-03-21T19:46:41.040Z,8.90
2023-03-21T19:49:14.539Z,8.60
2023-03-21T19:51:47.544Z,8.10
2023-03-21T19:54:17.326Z,7.05
2023-03-21T19:56:51.557Z,9.30
2023-03-21T19:59:24.658Z,8.98
2023-03-21T20:02:08.834Z,8.00
2023-03-21T20:04:50.603Z,7.70
2023-03-21T20:07:17.471Z,8.85
2023-03-21T20:09:51.915Z,8.10
2023-03-21T20:12:26.776Z,8.63
2023-03-21T20:15:01.610Z,8.02
2023-03-21T20:17:42.625Z,7.85
2023-03-21T20:20:10.215Z,6.80
2023-03-21T20:23:05.179Z,7.32
2023-03-21T20:25:31.891Z,6.38
2023-03-21T20:28:14.678Z,7.10
2023-03-21T20:30:54.672Z,7.43
2023-03-21T20:33:28.642Z,7.88
2023-03-21T20:38:56.848Z,8.23
2023-03-21T20:41:23.704Z,8.43
2023-03-21T20:44:39.085Z,7.88
2023-03-21T20:46:53.667Z,7.30
2023-03-21T20:49:23.003Z,7.43
2023-03-21T20:54:43.783Z,7.63
2023-03-21T20:57:17.669Z,7.00
2023-03-21T20:59:45.740Z,7.13
2023-03-21T21:02:20.672Z,6.00
2023-03-21T21:05:24.311Z,6.68
2023-03-21T21:07:49.678Z,6.53
2023-03-21T21:10:17.929Z,6.40
2023-03-21T21:12:51.680Z,5.13
2023-03-21T21:15:18.572Z,5.28
2023-03-21T21:18:05.463Z,5.22
2023-03-21T21:20:33.709Z,4.88
2023-03-21T21:23:07.669Z,4.35
2023-03-21T21:25:35.198Z,4.63
2023-03-21T21:28:09.856Z,4.35
2023-03-21T21:30:44.721Z,5.03
2023-03-21T21:33:14.381Z,4.50
2023-03-21T21:35:56.790Z,4.10
2023-03-21T21:40:58.716Z,4.10
2023-03-21T21:43:25.796Z,4.60
2023-03-21T21:45:53.222Z,5.13
2023-03-21T21:48:26.708Z,4.97
2023-03-21T21:50:54.170Z,5.00
2023-03-21T21:53:27.717Z,5.22
2023-03-21T21:55:55.944Z,5.13
2023-03-21T21:58:29.716Z,5.45
2023-03-21T22:01:01.751Z,5.40
2023-03-21T22:06:10.575Z,5.10
2023-03-21T22:08:44.742Z,4.75
2023-03-21T22:11:11.571Z,4.03
2023-03-21T22:13:44.750Z,4.60
2023-03-21T22:16:12.157Z,4.03
2023-03-21T22:18:39.051Z,4.22
2023-03-21T22:21:13.780Z,3.50
2023-03-21T22:23:49.794Z,4.35
2023-03-21T22:26:16.699Z,3.53
2023-03-21T22:28:49.817Z,2.90
2023-03-21T22:31:17.131Z,3.20
2023-03-21T22:33:51.807Z,3.15
2023-03-21T22:36:26.802Z,2.95
2023-03-21T22:38:59.785Z,2.72
2023-03-21T22:41:27.155Z,2.42
2023-03-21T22:44:01.023Z,3.00
2023-03-21T22:46:40.774Z,3.13
2023-03-21T22:49:13.886Z,2.30
2023-03-21T22:51:41.453Z,2.63
2023-03-21T22:54:14.852Z,2.63
2023-03-21T22:56:41.698Z,2.05
2023-03-21T22:59:14.810Z,2.17
2023-03-21T23:01:47.934Z,2.17
2023-03-21T23:04:15.584Z,2.38
2023-03-21T23:06:49.860Z,2.42
2023-03-21T23:09:21.227Z,2.08
2023-03-21T23:11:55.897Z,2.25
2023-03-21T23:14:31.838Z,2.75
2023-03-21T23:17:08.874Z,1.80
2023-03-21T23:19:35.979Z,2.15
2023-03-21T23:22:03.179Z,1.92
2023-03-21T23:24:36.958Z,2.45
2023-03-21T23:27:08.829Z,2.08
2023-03-21T23:29:41.897Z,2.30
2023-03-21T23:32:18.729Z,2.08
2023-03-21T23:34:51.917Z,2.00
2023-03-21T23:37:18.792Z,2.10
2023-03-21T23:39:52.204Z,2.40
2023-03-21T23:42:25.996Z,1.90
2023-03-21T23:44:58.940Z,1.85
2023-03-21T23:47:25.811Z,2.55
2023-03-21T23:49:58.959Z,2.05
2023-03-21T23:52:26.078Z,2.50
2023-03-21T23:54:59.901Z,2.13
2023-03-21T23:57:27.127Z,1.95
